Time;durP1;ratioP1;P1;durP2;ratioP2;P2;SDS_P1;SDS_P2;PMS_P1;PMS_P2;Temp;Humidity;BMP_temperature;BMP_pressure;BME280_temperature;BME280_humidity;BME280_pressure;Samples;Min_cycle;Max_cycle;Signal;HPM_P1;HPM_P2
2021/07/04 00:00:28;;;;;;;3.58;0.20;;;22.60;96.30;;;22.08;60.63;100222.19;5025780;28;20043;-59
2021/07/04 00:02:56;;;;;;;1.98;0.30;;;22.60;96.30;;;22.06;61.02;100226.91;5027242;28;20127;-65
2021/07/04 00:05:26;;;;;;;1.15;0.35;;;22.50;96.40;;;22.08;60.62;100235.47;5027314;28;20022;-64
2021/07/04 00:07:53;;;;;;;2.20;0.30;;;22.50;96.40;;;22.06;60.61;100228.75;5027553;28;20037;-57
2021/07/04 00:10:31;;;;;;;0.52;0.20;;;22.60;96.30;;;22.10;60.20;100236.06;5027420;28;20037;-54
2021/07/04 00:12:58;;;;;;;3.85;0.22;;;22.60;96.10;;;22.12;60.16;100236.63;5026430;28;20060;-64
2021/07/04 00:15:30;;;;;;;3.70;0.22;;;22.60;95.90;;;21.94;62.41;100243.78;5027149;28;20366;-56
2021/07/04 00:17:56;;;;;;;3.88;0.30;;;22.50;97.10;;;21.68;63.44;100237.00;5027688;28;20041;-60
2021/07/04 00:20:23;;;;;;;0.60;0.20;;;22.30;98.20;;;21.56;64.22;100242.22;5027577;28;20508;-56
2021/07/04 00:22:56;;;;;;;1.10;0.20;;;22.20;99.00;;;21.48;64.50;100245.97;5027194;28;20147;-64
2021/07/04 00:25:25;;;;;;;3.35;0.30;;;22.10;99.70;;;21.45;65.01;100243.75;5025886;28;20029;-55
2021/07/04 00:27:52;;;;;;;1.98;0.20;;;22.00;99.90;;;21.39;66.02;100236.69;5025499;28;20484;-64
2021/07/04 00:30:20;;;;;;;2.22;0.20;;;22.00;99.90;;;21.28;67.55;100234.75;5027359;28;20037;-57
2021/07/04 00:32:46;;;;;;;3.97;0.30;;;21.90;99.90;;;21.19;67.85;100220.19;5027232;28;20037;-51
2021/07/04 00:35:15;;;;;;;4.82;0.30;;;21.80;99.90;;;21.08;68.82;100207.66;5026953;28;20040;-54
2021/07/04 00:37:42;;;;;;;0.50;0.20;;;21.70;99.90;;;21.08;69.53;100208.47;5026986;28;20193;-59
2021/07/04 00:40:09;;;;;;;5.53;0.60;;;21.60;99.90;;;21.07;70.44;100204.19;5026844;28;20041;-63
2021/07/04 00:42:36;;;;;;;1.88;0.40;;;21.60;99.90;;;21.07;71.17;100201.53;5026030;28;20079;-61
2021/07/04 00:45:14;;;;;;;1.85;0.30;;;21.60;99.90;;;21.11;73.19;100194.78;5025296;28;20118;-60
2021/07/04 00:47:41;;;;;;;1.58;0.40;;;21.70;99.90;;;21.06;73.16;100197.28;5027301;28;20072;-58
2021/07/04 00:50:08;;;;;;;2.58;0.30;;;21.60;99.90;;;21.04;73.65;100201.16;5026699;28;20124;-62
2021/07/04 00:52:35;;;;;;;2.08;0.30;;;21.60;99.90;;;20.88;74.67;100191.94;5026742;28;20080;-62
2021/07/04 00:55:03;;;;;;;2.88;0.30;;;21.50;99.90;;;20.78;75.29;100192.47;5026694;28;20025;-56
2021/07/04 00:57:31;;;;;;;3.63;0.35;;;21.40;99.90;;;20.66;76.35;100196.03;5026731;28;20532;-54
2021/07/04 00:59:57;;;;;;;1.02;0.30;;;21.30;99.90;;;20.61;76.98;100193.22;5025515;28;20131;-55
2021/07/04 01:02:24;;;;;;;1.83;0.50;;;21.20;99.90;;;20.52;77.87;100195.31;5026641;28;20041;-66
2021/07/04 01:04:50;;;;;;;1.83;0.30;;;21.10;99.90;;;20.53;77.25;100195.09;5025131;28;20034;-63
2021/07/04 01:07:16;;;;;;;1.35;0.28;;;21.10;99.90;;;20.56;76.90;100185.94;5027137;28;20100;-60
2021/07/04 01:09:43;;;;;;;3.10;0.40;;;21.10;99.90;;;20.56;76.75;100185.13;5026599;28;20021;-58
2021/07/04 01:12:09;;;;;;;4.95;0.20;;;21.10;99.90;;;20.57;76.07;100186.75;5026910;28;20041;-56
2021/07/04 01:14:35;;;;;;;1.05;0.30;;;21.10;99.90;;;20.70;75.63;100190.09;5026731;28;20036;-60
2021/07/04 01:17:02;;;;;;;2.72;0.20;;;21.20;99.90;;;20.74;75.43;100186.00;5026884;28;20034;-55
2021/07/04 01:19:27;;;;;;;3.38;0.45;;;21.30;99.90;;;20.64;75.95;100185.66;5026935;28;20037;-56
2021/07/04 01:21:56;;;;;;;2.05;0.20;;;21.20;99.90;;;20.58;74.78;100180.41;5026707;28;20030;-59
2021/07/04 01:24:24;;;;;;;3.22;0.30;;;21.20;99.90;;;20.54;74.52;100175.56;5028445;28;20128;-61
2021/07/04 01:26:50;;;;;;;2.55;0.30;;;21.10;99.90;;;20.51;74.22;100175.19;5030281;28;20137;-64
2021/07/04 01:29:18;;;;;;;2.58;0.20;;;21.00;99.90;;;20.44;73.91;100180.53;5030320;28;20029;-60
2021/07/04 01:31:44;;;;;;;1.70;0.20;;;21.00;99.90;;;20.45;73.16;100198.03;5030446;28;20521;-59
2021/07/04 01:34:10;;;;;;;1.02;0.20;;;20.90;99.90;;;20.31;73.73;100207.06;5030068;28;20044;-62
2021/07/04 01:36:38;;;;;;;0.55;0.20;;;20.90;99.90;;;20.24;74.33;100206.31;5028891;28;20431;-61
2021/07/04 01:39:05;;;;;;;2.22;0.40;;;20.80;99.90;;;20.37;75.76;100210.66;5028569;28;20079;-62
2021/07/04 01:41:35;;;;;;;3.47;1.20;;;20.90;99.90;;;20.34;77.04;100219.03;5030354;28;20183;-64
2021/07/04 01:44:02;;;;;;;1.45;0.30;;;20.90;99.90;;;20.23;77.85;100217.91;5029823;28;20053;-59
2021/07/04 01:46:28;;;;;;;7.25;0.43;;;20.90;99.90;;;20.15;78.77;100211.03;5029911;28;20044;-66
2021/07/04 01:48:54;;;;;;;0.93;0.38;;;20.80;99.90;;;20.06;79.42;100217.59;5029958;28;20097;-61
2021/07/04 01:51:20;;;;;;;1.52;0.30;;;20.60;99.90;;;20.04;79.32;100211.69;5028790;28;20488;-56
2021/07/04 01:53:46;;;;;;;1.90;0.30;;;20.60;99.90;;;19.99;78.40;100214.16;5029817;28;20044;-58
2021/07/04 01:56:12;;;;;;;0.63;0.22;;;20.60;99.90;;;19.95;78.17;100212.16;5030196;28;20044;-52
2021/07/04 01:58:41;;;;;;;1.23;0.40;;;20.50;99.90;;;19.97;79.45;100216.22;5029844;28;20025;-57
2021/07/04 02:01:08;;;;;;;1.33;0.35;;;20.50;99.90;;;19.85;80.36;100210.78;5029408;28;20037;-50
2021/07/04 02:03:34;;;;;;;0.70;0.40;;;20.50;99.90;;;19.80;81.30;100215.09;5029536;28;20052;-66
2021/07/04 02:06:02;;;;;;;1.83;0.30;;;20.40;99.90;;;19.87;81.33;100215.84;5029626;28;20037;-55
2021/07/04 02:08:28;;;;;;;1.20;0.30;;;20.40;99.90;;;19.83;82.19;100212.84;5029626;28;20417;-52
2021/07/04 02:10:54;;;;;;;0.80;0.30;;;20.40;99.90;;;19.79;82.25;100214.28;5029548;28;20029;-58
2021/07/04 02:13:20;;;;;;;3.05;0.30;;;20.40;99.90;;;19.75;82.29;100217.56;5029514;28;20124;-61
2021/07/04 02:15:46;;;;;;;1.48;0.43;;;20.40;99.90;;;19.73;81.38;100224.88;5029591;28;20522;-57
2021/07/04 02:18:16;;;;;;;3.95;0.35;;;20.30;99.90;;;19.80;80.62;100231.78;5029711;28;20025;-63
2021/07/04 02:20:52;;;;;;;1.58;0.30;;;20.30;99.90;;;19.89;81.77;100238.41;5029347;28;20025;-64
2021/07/04 02:23:27;;;;;;;2.22;0.25;;;20.40;99.90;;;19.83;81.47;100234.00;5029178;28;20141;-60
2021/07/04 02:25:54;;;;;;;;;;;20.40;99.90;;;19.75;82.43;100238.69;5029728;28;20048;-56
2021/07/04 02:28:23;;;;;;;1.63;0.30;;;20.30;99.90;;;19.78;80.41;100244.38;5029254;28;19990;-59
2021/07/04 02:30:52;;;;;;;0.57;0.32;;;20.30;99.90;;;19.82;80.54;100250.88;5029557;28;20066;-58
2021/07/04 02:33:20;;;;;;;3.05;0.30;;;20.30;99.90;;;19.76;80.35;100243.78;5028989;28;20029;-57
2021/07/04 02:35:52;;;;;;;1.10;0.20;;;20.30;99.90;;;19.60;81.52;100246.06;5027101;28;20067;-64
2021/07/04 02:38:19;;;;;;;2.25;0.30;;;20.20;99.90;;;19.50;81.15;100246.47;5028803;28;20404;-56
2021/07/04 02:43:23;;;;;;;;;;;20.00;99.90;;;19.39;83.85;100250.56;4857609;22;20062;-60
2021/07/04 02:45:50;;;;;;;2.92;0.30;;;19.90;99.90;;;19.39;81.34;100255.84;4989531;28;19929;-56
2021/07/04 02:48:16;;;;;;;0.70;0.35;;;19.90;99.90;;;19.48;81.90;100259.88;4989751;28;20042;-64
2021/07/04 02:50:44;;;;;;;2.97;0.60;;;20.00;99.90;;;19.56;82.96;100261.53;4989696;28;20401;-58
2021/07/04 02:53:10;;;;;;;2.28;0.50;;;20.10;99.90;;;19.43;83.63;100267.63;4988092;28;20113;-58
2021/07/04 02:55:37;;;;;;;1.70;0.40;;;20.00;99.90;;;19.45;83.95;100265.59;4989556;28;20493;-55
2021/07/04 02:58:05;;;;;;;6.13;0.50;;;20.00;99.90;;;19.49;85.10;100265.97;4989448;28;20524;-62
2021/07/04 03:00:31;;;;;;;4.63;0.50;;;20.00;99.90;;;19.50;85.46;100259.69;4988001;28;20040;-52
2021/07/04 03:02:57;;;;;;;2.05;0.50;;;20.10;99.90;;;19.47;86.06;100268.03;4989203;28;20040;-57
2021/07/04 03:05:23;;;;;;;4.45;0.90;;;20.10;99.90;;;19.44;86.62;100284.28;4989146;28;20042;-60
2021/07/04 03:07:49;;;;;;;2.35;0.60;;;20.00;99.90;;;19.39;87.39;100282.25;4989521;28;20031;-56
2021/07/04 03:10:19;;;;;;;4.97;0.68;;;20.00;99.90;;;19.42;87.68;100287.13;4989375;28;20072;-60
2021/07/04 03:12:46;;;;;;;4.43;0.80;;;20.00;99.90;;;19.31;87.69;100279.06;4989446;28;20513;-58
2021/07/04 03:15:15;;;;;;;2.72;0.93;;;19.90;99.90;;;19.30;87.73;100278.25;4989526;28;20042;-57
2021/07/04 03:17:41;;;;;;;4.53;0.45;;;19.90;99.90;;;19.20;87.54;100278.66;4988942;28;20492;-59
2021/07/04 03:20:10;;;;;;;1.85;0.50;;;19.80;99.90;;;19.11;86.94;100282.50;4989288;28;20034;-59
2021/07/04 03:22:36;;;;;;;1.02;0.50;;;19.70;99.90;;;18.98;87.14;100279.88;4988991;28;20137;-62
2021/07/04 03:25:05;;;;;;;2.15;0.35;;;19.40;99.90;;;19.00;87.09;100274.38;4988881;28;20038;-60
2021/07/04 03:27:31;;;;;;;2.35;0.60;;;19.50;99.90;;;19.00;86.85;100272.56;4988838;28;20201;-59
2021/07/04 03:29:57;;;;;;;1.52;0.50;;;19.60;99.90;;;18.88;87.62;100282.13;4988974;28;20444;-58
2021/07/04 03:32:23;;;;;;;4.10;0.50;;;19.40;99.90;;;18.82;88.09;100281.13;4988820;28;20053;-59
2021/07/04 03:34:49;;;;;;;2.35;0.30;;;19.40;99.90;;;18.77;88.28;100280.91;4988680;28;20042;-55
2021/07/04 03:37:16;;;;;;;2.35;0.50;;;19.30;99.90;;;18.81;87.60;100279.50;4987432;28;20361;-58
2021/07/04 03:39:43;;;;;;;2.42;0.43;;;19.30;99.90;;;18.81;87.72;100282.13;4988761;28;20031;-62
2021/07/04 03:42:10;;;;;;;2.90;0.50;;;19.30;99.90;;;18.78;87.87;100279.91;4988365;28;20133;-59
2021/07/04 03:44:37;;;;;;;1.25;0.55;;;19.30;99.90;;;18.78;87.93;100277.25;4987085;28;20057;-54
2021/07/04 03:47:03;;;;;;;2.10;0.55;;;19.30;99.90;;;18.80;88.11;100277.06;4988354;28;20576;-51
2021/07/04 03:49:29;;;;;;;2.65;0.50;;;19.30;99.90;;;18.80;88.83;100280.50;4988544;28;20038;-66
2021/07/04 03:51:55;;;;;;;6.82;0.68;;;19.30;99.90;;;18.78;89.49;100282.53;4988679;28;20038;-56
2021/07/04 03:54:21;;;;;;;5.57;0.70;;;19.40;99.90;;;18.84;90.02;100281.72;4988783;28;20060;-60
2021/07/04 03:56:47;;;;;;;2.30;0.55;;;19.40;99.90;;;18.78;90.22;100287.81;4988546;28;20449;-58
2021/07/04 03:59:13;;;;;;;2.97;0.75;;;19.40;99.90;;;18.78;89.86;100282.53;4988689;28;20522;-59
2021/07/04 04:01:39;;;;;;;2.03;0.57;;;19.30;99.90;;;18.74;89.57;100288.41;4988357;28;20501;-54
2021/07/04 04:04:05;;;;;;;1.02;0.50;;;19.20;99.90;;;18.72;89.73;100280.69;4988419;28;20042;-56
2021/07/04 04:06:31;;;;;;;2.10;0.50;;;19.20;99.90;;;18.70;89.63;100280.09;4988632;28;20067;-56
2021/07/04 04:08:57;;;;;;;1.98;0.80;;;19.30;99.90;;;18.67;89.90;100275.22;4988593;28;20121;-56
2021/07/04 04:11:23;;;;;;;1.02;0.70;;;19.20;99.90;;;18.67;89.29;100280.50;4988140;28;20129;-56
2021/07/04 04:13:48;;;;;;;2.13;0.50;;;19.10;99.90;;;18.68;89.40;100287.38;4988037;28;20133;-57
2021/07/04 04:16:15;;;;;;;4.35;0.50;;;19.20;99.90;;;18.66;89.93;100275.41;4987946;28;20518;-60
2021/07/04 04:18:41;;;;;;;2.45;0.47;;;19.20;99.90;;;18.67;89.73;100277.84;4988442;28;20030;-55
2021/07/04 04:21:08;;;;;;;1.65;0.70;;;19.20;99.90;;;18.67;89.85;100274.41;4988270;28;20045;-57
2021/07/04 04:23:35;;;;;;;3.10;0.60;;;19.20;99.90;;;18.73;89.49;100271.75;4988040;28;20034;-53
2021/07/04 04:26:03;;;;;;;2.70;0.50;;;19.20;99.90;;;18.75;89.76;100268.94;4988038;28;20038;-56
2021/07/04 04:28:31;;;;;;;2.10;0.60;;;19.20;99.90;;;18.83;89.27;100269.53;4987818;28;20042;-57
2021/07/04 04:30:57;;;;;;;2.90;0.50;;;19.20;99.90;;;18.82;89.85;100261.81;4988145;28;20057;-57
2021/07/04 04:33:23;;;;;;;2.05;0.40;;;19.30;99.90;;;18.86;89.29;100268.31;4988079;28;20030;-56
2021/07/04 04:35:49;;;;;;;1.80;0.55;;;19.30;99.90;;;18.89;89.20;100266.09;4987847;28;20401;-59
2021/07/04 04:38:15;;;;;;;2.30;0.60;;;19.30;99.90;;;18.98;89.48;100263.22;4987769;28;20030;-59
2021/07/04 04:40:41;;;;;;;2.60;0.50;;;19.40;99.90;;;19.01;90.01;100268.09;4987921;28;20485;-55
2021/07/04 04:43:07;;;;;;;4.20;0.65;;;19.50;99.90;;;19.07;90.10;100264.63;4987458;28;20346;-54
2021/07/04 04:45:33;;;;;;;1.42;0.45;;;19.60;99.90;;;19.02;89.98;100270.53;4987564;28;20785;-59
2021/07/04 04:47:59;;;;;;;1.63;0.50;;;19.60;99.90;;;18.95;89.75;100272.34;4987952;28;20450;-61
2021/07/04 04:50:25;;;;;;;2.40;0.40;;;19.50;99.90;;;19.02;89.30;100265.25;4987791;28;20040;-57
2021/07/04 04:52:52;;;;;;;1.20;0.50;;;19.50;99.90;;;18.97;89.23;100267.69;4987787;28;20038;-57
2021/07/04 04:55:18;;;;;;;1.10;0.55;;;19.50;99.90;;;18.93;89.31;100271.75;4987672;28;20417;-56
2021/07/04 04:57:44;;;;;;;0.77;0.40;;;19.40;99.90;;;18.90;89.63;100264.25;4987798;28;20410;-54
2021/07/04 05:00:14;;;;;;;1.60;0.65;;;19.40;99.90;;;18.91;89.89;100265.84;4990629;28;20042;-56
2021/07/04 05:02:40;;;;;;;1.60;0.40;;;19.40;99.90;;;18.82;89.46;100280.31;4991604;28;20054;-56
2021/07/04 05:05:07;;;;;;;1.60;0.60;;;19.30;99.90;;;18.82;89.31;100275.84;4991430;28;20073;-58
2021/07/04 05:07:33;;;;;;;1.50;0.50;;;19.30;99.90;;;18.86;89.40;100277.06;4991318;28;20026;-57
2021/07/04 05:09:59;;;;;;;1.27;0.52;;;19.30;99.90;;;18.95;89.09;100280.28;4991731;28;20034;-55
2021/07/04 05:12:25;;;;;;;0.75;0.40;;;19.40;99.90;;;19.07;88.43;100281.28;4991095;28;20390;-56
2021/07/04 05:14:52;;;;;;;1.33;0.50;;;19.60;99.90;;;19.04;89.11;100270.34;4990959;28;20077;-57
2021/07/04 05:17:19;;;;;;;1.15;0.50;;;19.50;99.90;;;18.99;89.44;100278.03;4974023;28;20100;-58
2021/07/04 05:19:45;;;;;;;2.42;0.47;;;19.50;99.90;;;18.85;90.24;100280.72;4989740;28;20105;-55
2021/07/04 05:22:12;;;;;;;3.85;0.50;;;19.40;99.90;;;18.87;90.07;100277.88;4991057;28;20030;-55
2021/07/04 05:24:38;;;;;;;2.28;0.50;;;19.40;99.90;;;18.97;89.49;100267.69;4989781;28;20392;-58
2021/07/04 05:27:04;;;;;;;3.03;0.73;;;19.40;99.90;;;19.07;89.31;100275.19;4990838;28;20053;-61
2021/07/04 05:29:30;;;;;;;2.90;0.70;;;19.50;99.90;;;19.13;89.25;100274.38;4991192;28;20084;-61
2021/07/04 05:31:56;;;;;;;1.90;0.63;;;19.60;99.90;;;19.16;88.59;100277.44;4991130;28;20498;-60
2021/07/04 05:34:22;;;;;;;1.58;0.40;;;19.70;99.90;;;19.15;88.64;100259.16;4990923;28;20030;-60
2021/07/04 05:36:49;;;;;;;1.70;0.60;;;19.60;99.90;;;19.14;88.74;100268.09;4990882;28;20208;-61
2021/07/04 05:39:15;;;;;;;2.75;1.00;;;19.60;99.90;;;19.33;88.17;100256.69;4989093;28;20065;-60
2021/07/04 05:41:41;;;;;;;1.65;0.50;;;19.70;99.90;;;19.26;87.88;100255.91;4973161;28;20033;-59
2021/07/04 05:44:07;;;;;;;2.80;0.55;;;19.80;99.90;;;19.36;87.46;100260.75;4990441;28;20386;-59
2021/07/04 05:46:35;;;;;;;1.50;0.40;;;19.80;99.90;;;19.40;87.41;100252.19;4990495;28;20066;-56
2021/07/04 05:49:02;;;;;;;3.83;0.82;;;19.80;99.90;;;19.39;87.63;100255.84;4990442;28;20586;-59
2021/07/04 05:51:28;;;;;;;1.70;0.55;;;19.90;99.90;;;19.38;87.77;100259.50;4990546;28;20089;-53
2021/07/04 05:53:54;;;;;;;1.17;0.50;;;19.90;99.90;;;19.52;87.70;100261.13;4990245;28;20038;-58
2021/07/04 05:56:20;;;;;;;1.83;0.57;;;20.00;99.90;;;19.78;87.15;100254.16;4990813;28;20422;-58
2021/07/04 05:58:46;;;;;;;2.80;0.70;;;20.20;99.90;;;19.84;87.23;100262.06;4990392;28;20038;-57
2021/07/04 06:01:12;;;;;;;1.88;0.50;;;20.30;99.90;;;19.83;86.90;100254.34;4990491;28;20379;-58
2021/07/04 06:03:38;;;;;;;3.20;0.60;;;20.30;99.90;;;19.88;86.76;100249.19;4990085;28;20549;-57
2021/07/04 06:06:04;;;;;;;1.13;0.40;;;20.40;99.90;;;19.89;86.80;100248.19;4990269;28;20522;-61
2021/07/04 06:08:29;;;;;;;1.38;0.43;;;20.40;99.90;;;19.84;85.89;100237.44;4988238;28;20061;-55
2021/07/04 06:10:55;;;;;;;1.10;0.40;;;20.40;99.90;;;19.72;86.02;100239.94;4988973;28;20448;-56
2021/07/04 06:13:22;;;;;;;2.17;0.50;;;20.30;99.90;;;19.89;85.45;100240.25;4988374;28;20045;-57
2021/07/04 06:15:48;;;;;;;1.10;0.40;;;20.40;99.90;;;19.86;85.56;100252.06;4989892;28;20517;-60
2021/07/04 06:18:14;;;;;;;3.13;0.60;;;20.40;99.90;;;19.93;85.85;100256.50;4989942;28;20034;-64
2021/07/04 06:20:41;;;;;;;3.05;0.50;;;20.40;99.90;;;20.04;85.09;100254.00;4989900;28;20049;-62
2021/07/04 06:23:07;;;;;;;1.58;0.52;;;20.50;99.90;;;20.19;85.01;100251.09;4989814;28;20046;-62
2021/07/04 06:25:33;;;;;;;1.48;0.50;;;20.60;99.90;;;20.21;85.26;100249.84;4989805;28;20117;-62
2021/07/04 06:27:59;;;;;;;3.55;0.80;;;20.70;99.90;;;20.31;84.90;100251.22;4989772;28;20125;-60
2021/07/04 06:30:25;;;;;;;2.95;0.70;;;20.80;99.90;;;20.53;84.10;100247.22;4990018;28;20034;-53
2021/07/04 06:32:51;;;;;;;4.25;0.80;;;20.90;99.90;;;20.48;84.54;100242.56;4989978;28;20497;-58
2021/07/04 06:35:17;;;;;;;2.80;0.60;;;21.00;99.90;;;20.41;84.44;100254.22;4988425;28;20034;-54
2021/07/04 06:37:44;;;;;;;3.42;0.90;;;21.00;99.90;;;20.28;84.53;100251.66;4988306;28;20057;-52
2021/07/04 06:40:12;;;;;;;1.98;0.52;;;20.90;99.90;;;20.36;84.20;100260.13;4989510;28;20094;-57
2021/07/04 06:42:39;;;;;;;0.90;0.55;;;20.80;99.90;;;20.45;83.33;100258.88;4988084;28;20065;-59
2021/07/04 06:45:10;;;;;;;3.15;0.60;;;20.90;99.90;;;20.47;83.94;100253.38;4989587;28;20145;-63
2021/07/04 06:47:39;;;;;;;2.63;0.82;;;20.90;99.90;;;20.51;83.15;100258.03;4988027;28;20052;-58
2021/07/04 06:50:07;;;;;;;1.60;0.70;;;21.00;99.90;;;20.57;83.35;100264.31;4988252;28;20333;-57
2021/07/04 06:52:32;;;;;;;3.70;0.60;;;21.10;99.90;;;20.71;82.38;100257.09;4989699;28;20064;-54
2021/07/04 06:54:58;;;;;;;1.13;0.60;;;21.20;99.90;;;20.70;82.66;100253.63;4989507;28;20038;-53
2021/07/04 06:57:27;;;;;;;1.33;0.50;;;21.20;99.90;;;20.73;82.29;100247.09;4989448;28;20249;-50
2021/07/04 07:00:20;;;;;;;3.05;0.80;;;21.30;99.90;;;20.97;82.81;100242.78;4987799;28;20038;-50
2021/07/04 07:02:47;;;;;;;2.25;0.77;;;21.40;99.90;;;21.23;80.92;100242.59;4984402;28;20053;-52
2021/07/04 07:05:13;;;;;;;1.70;0.60;;;21.60;99.90;;;21.35;79.85;100235.50;4987583;28;20038;-56
2021/07/04 07:07:40;;;;;;;2.83;0.88;;;21.80;99.90;;;21.59;78.58;100240.97;4988976;28;20081;-54
2021/07/04 07:10:10;;;;;;;1.40;0.60;;;22.00;99.90;;;21.68;78.64;100234.34;4989157;28;20592;-53
2021/07/04 07:12:36;;;;;;;2.25;0.70;;;22.10;99.90;;;21.76;78.07;100234.00;4989043;28;20214;-56
2021/07/04 07:15:03;;;;;;;1.63;0.45;;;22.40;99.90;;;22.10;76.94;100235.25;4988930;28;20046;-58
2021/07/04 07:17:29;;;;;;;2.20;0.80;;;22.70;99.90;;;22.03;77.54;100229.22;4988800;28;20038;-54
2021/07/04 07:19:55;;;;;;;2.55;0.70;;;22.80;99.90;;;22.19;76.59;100228.59;4989128;28;20124;-57
2021/07/04 07:22:22;;;;;;;3.53;0.43;;;22.90;99.90;;;22.50;75.18;100217.69;4988879;28;20026;-55
2021/07/04 07:24:49;;;;;;;1.95;0.40;;;23.20;99.90;;;22.94;73.28;100222.72;4987280;28;20053;-55
2021/07/04 07:27:16;;;;;;;0.82;0.30;;;23.40;99.90;;;23.10;71.82;100222.84;4988747;28;20162;-51
2021/07/04 07:29:43;;;;;;;1.95;0.38;;;23.70;99.90;;;23.66;70.31;100217.88;4988688;28;20041;-60
2021/07/04 07:32:09;;;;;;;0.98;0.50;;;24.10;99.90;;;24.15;69.02;100214.53;4988711;28;20045;-55
2021/07/04 07:34:36;;;;;;;1.98;0.30;;;24.60;99.90;;;24.59;68.45;100209.44;4988792;28;20080;-54
2021/07/04 07:37:02;;;;;;;2.25;0.40;;;25.10;99.90;;;24.43;68.21;100218.25;4988698;28;20162;-58
2021/07/04 07:39:28;;;;;;;1.85;0.40;;;25.40;99.90;;;24.37;68.28;100211.22;4988731;28;20133;-55
2021/07/04 07:41:54;;;;;;;1.13;0.30;;;25.10;99.90;;;24.27;68.49;100211.03;4988480;28;20034;-56
2021/07/04 07:44:20;;;;;;;2.30;0.38;;;25.00;99.90;;;24.41;68.02;100212.34;4988168;28;20042;-52
2021/07/04 07:46:48;;;;;;;1.25;0.32;;;25.10;99.90;;;24.14;70.02;100212.13;4988549;28;20085;-55
2021/07/04 07:49:16;;;;;;;3.17;0.45;;;25.00;99.90;;;24.33;69.86;100208.22;4986830;28;20041;-59
2021/07/04 07:51:43;;;;;;;3.58;0.50;;;25.10;99.90;;;24.07;68.64;100217.63;4986606;28;20125;-54
2021/07/04 07:54:10;;;;;;;0.75;0.30;;;24.90;99.90;;;23.81;69.03;100218.19;4988091;28;20083;-54
2021/07/04 07:56:35;;;;;;;2.05;0.30;;;24.50;99.90;;;23.63;69.58;100226.34;4988074;28;20118;-54
2021/07/04 07:59:02;;;;;;;1.67;0.55;;;24.40;99.90;;;23.48;69.95;100218.84;4988065;28;20139;-50
2021/07/04 08:01:27;;;;;;;1.25;0.40;;;24.20;99.90;;;23.22;70.66;100220.13;4988332;28;20026;-55
2021/07/04 08:03:53;;;;;;;0.75;0.30;;;24.00;99.90;;;23.39;70.07;100218.38;4988488;28;20389;-53
2021/07/04 08:06:19;;;;;;;2.42;0.30;;;24.00;99.90;;;23.85;68.64;100218.50;4987965;28;20085;-55
2021/07/04 08:08:45;;;;;;;1.80;0.40;;;24.10;99.90;;;24.04;68.45;100222.59;4986745;28;20031;-54
2021/07/04 08:11:11;;;;;;;4.50;0.65;;;24.50;99.90;;;24.30;67.84;100221.22;4988610;28;20065;-56
2021/07/04 08:13:37;;;;;;;1.52;0.30;;;24.70;99.90;;;24.71;66.24;100223.47;4987836;28;20042;-59
2021/07/04 08:16:03;;;;;;;1.08;0.30;;;25.30;99.90;;;24.51;66.16;100223.19;4988307;28;20036;-59
2021/07/04 08:18:29;;;;;;;0.80;0.40;;;25.40;99.90;;;24.30;67.30;100216.69;4987986;28;20089;-58
2021/07/04 08:20:56;;;;;;;3.35;0.38;;;25.20;99.90;;;24.68;65.45;100215.16;4987952;28;20033;-59
2021/07/04 08:23:22;;;;;;;1.52;0.30;;;25.20;99.90;;;25.05;64.68;100208.28;4988141;28;20060;-52
2021/07/04 08:25:48;;;;;;;2.22;0.30;;;25.40;99.90;;;25.46;63.51;100209.63;4986296;28;20060;-56
2021/07/04 08:28:17;;;;;;;1.13;0.30;;;26.00;99.90;;;26.04;60.93;100215.31;4987791;28;20474;-55
2021/07/04 08:30:44;;;;;;;1.40;0.20;;;26.40;99.90;;;25.44;62.63;100210.94;4987876;28;20041;-58
2021/07/04 08:33:10;;;;;;;0.60;0.30;;;26.30;99.90;;;25.14;63.56;100228.13;4987986;28;20034;-49
2021/07/04 08:35:37;;;;;;;3.40;0.30;;;26.20;99.90;;;25.13;63.36;100220.38;4991881;28;20454;-61
2021/07/04 08:38:04;;;;;;;2.03;0.40;;;26.00;99.90;;;25.25;63.38;100234.41;4990778;28;20042;-57
2021/07/04 08:40:30;;;;;;;1.70;0.30;;;25.90;99.90;;;25.38;63.07;100225.25;4991752;28;20030;-60
2021/07/04 08:42:56;;;;;;;0.73;0.30;;;25.90;99.90;;;25.59;62.83;100234.28;4990108;28;20069;-65
2021/07/04 08:45:22;;;;;;;1.20;0.40;;;25.90;99.90;;;25.61;63.41;100227.66;4991924;28;20050;-58
2021/07/04 08:47:48;;;;;;;0.95;0.30;;;26.10;99.90;;;25.93;62.81;100221.63;4990485;28;20033;-64
2021/07/04 08:50:14;;;;;;;3.15;0.52;;;26.30;99.90;;;26.03;61.98;100219.84;4991876;28;20046;-62
2021/07/04 08:52:41;;;;;;;1.92;0.40;;;26.60;99.90;;;26.02;62.49;100212.91;4974334;28;20027;-60
2021/07/04 08:55:11;;;;;;;2.30;0.68;;;26.70;99.90;;;26.03;62.76;100216.38;4968699;28;20421;-59
2021/07/04 08:57:37;;;;;;;1.55;0.30;;;26.80;99.90;;;25.76;62.65;100216.38;4964709;28;20031;-61
2021/07/04 09:00:07;;;;;;;1.65;0.20;;;26.70;99.90;;;25.81;60.88;100207.63;4970276;28;20034;-60
2021/07/04 09:02:37;;;;;;;0.80;0.25;;;26.60;99.20;;;26.11;60.14;100197.25;4970379;28;20061;-60
2021/07/04 09:05:10;;;;;;;1.85;0.32;;;26.90;98.90;;;26.13;58.95;100197.78;4970371;28;20043;-60
2021/07/04 09:07:38;;;;;;;1.48;0.30;;;27.00;98.00;;;26.55;58.26;100200.56;4970653;28;20031;-60
2021/07/04 09:10:07;;;;;;;1.30;0.50;;;27.20;97.70;;;26.75;57.66;100190.03;4966991;28;20034;-60
2021/07/04 09:12:47;;;;;;;1.23;0.30;;;27.30;97.50;;;26.62;57.85;100195.81;4969066;28;20035;-55
2021/07/04 09:15:19;;;;;;;1.73;0.50;;;27.30;97.10;;;26.51;58.84;100188.78;4962817;28;20030;-60
2021/07/04 09:17:51;;;;;;;1.02;0.40;;;27.20;97.50;;;27.31;57.41;100177.00;4968510;28;20042;-61
2021/07/04 09:20:37;;;;;;;5.43;0.32;;;27.70;97.60;;;28.69;52.83;100170.75;4969252;28;20034;-61
2021/07/04 09:23:03;;;;;;;1.00;0.30;;;28.70;96.10;;;28.58;53.45;100165.66;4968341;28;20047;-59
2021/07/04 09:25:36;;;;;;;2.00;0.20;;;29.10;94.30;;;28.91;52.28;100164.28;4969208;28;20046;-60
2021/07/04 09:28:13;;;;;;;1.83;0.35;;;29.40;93.00;;;29.00;51.27;100159.97;4967156;28;20039;-60
2021/07/04 09:30:43;;;;;;;2.60;0.30;;;29.70;91.40;;;29.03;52.07;100154.84;4971842;28;20686;-61
2021/07/04 09:33:25;;;;;;;1.08;0.50;;;29.90;91.40;;;29.02;51.58;100153.25;4971608;28;20097;-60
2021/07/04 09:36:04;;;;;;;2.72;0.30;;;29.90;90.70;;;29.23;49.56;100147.81;4969882;28;20118;-59
2021/07/04 09:38:42;;;;;;;2.92;0.25;;;30.00;87.20;;;29.07;49.52;100147.06;4971507;28;20040;-60
2021/07/04 09:41:14;;;;;;;4.60;0.20;;;30.00;83.90;;;29.04;49.72;100144.94;4969933;28;20043;-61
2021/07/04 09:43:41;;;;;;;1.63;0.20;;;30.10;84.30;;;29.18;49.26;100148.63;4971244;28;20545;-61
2021/07/04 09:46:13;;;;;;;0.60;0.20;;;30.00;82.70;;;29.08;48.39;100148.66;4971417;28;20521;-52
2021/07/04 09:48:42;;;;;;;1.60;0.20;;;30.00;83.00;;;28.99;50.29;100155.66;4971318;28;20037;-51
2021/07/04 09:51:27;;;;;;;1.75;0.20;;;29.80;84.70;;;28.84;49.25;100161.88;4971275;28;20027;-51
2021/07/04 09:53:59;;;;;;;0.57;0.30;;;29.70;83.10;;;28.50;50.78;100172.38;4971450;28;20062;-55
2021/07/04 09:56:31;;;;;;;1.65;0.30;;;29.50;84.20;;;28.37;51.05;100168.34;4969604;28;20039;-54
2021/07/04 09:59:06;;;;;;;3.35;0.22;;;29.30;84.40;;;28.59;50.37;100164.59;4971295;28;20351;-56
2021/07/04 10:01:45;;;;;;;0.45;0.30;;;29.30;83.80;;;28.47;49.79;100170.22;4971079;28;20038;-53
2021/07/04 10:04:35;;;;;;;2.28;0.20;;;29.20;83.30;;;28.32;49.51;100164.91;4969580;28;20030;-62
2021/07/04 10:07:03;;;;;;;1.33;0.40;;;29.00;81.50;;;28.55;48.98;100167.00;4969532;28;20149;-62
2021/07/04 10:09:30;;;;;;;1.13;0.20;;;29.10;82.10;;;28.40;48.23;100159.78;4970905;28;20416;-62
2021/07/04 10:11:57;;;;;;;1.05;0.20;;;29.20;80.00;;;28.44;48.56;100159.25;4971005;28;20098;-58
2021/07/04 10:14:24;;;;;;;1.23;0.20;;;29.20;79.60;;;28.58;48.66;100163.00;4970809;28;20031;-57
2021/07/04 10:16:50;;;;;;;0.95;0.20;;;29.30;79.60;;;28.51;49.17;100168.63;4970902;28;20041;-58